Time,TemperatureF,DewpointF,PressureIn,WindDirection,WindDirectionDegrees,WindSpeedMPH,WindSpeedGustMPH,Humidity,HourlyPrecipIn,Conditions,Clouds,dailyrainin,SoftwareType,DateUTC
2013-09-04 00:04:00,70.0,59.0,30.02,ESE,121,0.0,0.0,69,0.00,,,0.00,,2013-09-04 04:04:00,
2013-09-04 00:14:00,70.0,59.0,30.02,ESE,121,0.0,0.0,69,0.00,,,0.00,,2013-09-04 04:14:00,
2013-09-04 00:54:00,69.0,59.0,30.03,ESE,121,0.0,0.0,71,0.00,,,0.00,,2013-09-04 04:54:00,
2013-09-04 01:12:00,68.0,59.0,30.03,SE,134,0.0,0.0,72,0.00,,,0.00,,2013-09-04 05:12:00,
2013-09-04 01:23:00,68.0,59.0,30.03,SE,134,0.0,0.0,72,0.00,,,0.00,,2013-09-04 05:23:00,
2013-09-04 01:34:00,68.0,59.0,30.03,SE,134,0.0,0.0,72,0.00,,,0.00,,2013-09-04 05:34:00,
2013-09-04 02:12:00,66.0,58.0,30.03,North,10,0.0,0.0,76,0.00,,,0.00,,2013-09-04 06:12:00,
2013-09-04 02:22:00,66.0,58.0,30.03,North,10,0.0,0.0,76,0.00,,,0.00,,2013-09-04 06:22:00,
2013-09-04 02:32:00,66.0,58.0,30.03,North,10,0.0,0.0,76,0.00,,,0.00,,2013-09-04 06:32:00,
2013-09-04 02:52:00,66.0,59.0,30.04,North,8,0.0,0.0,79,0.00,,,0.00,,2013-09-04 06:52:00,
2013-09-04 03:02:00,66.0,59.0,30.04,North,8,0.0,0.0,79,0.00,,,0.00,,2013-09-04 07:02:00,
2013-09-04 03:12:00,66.0,59.0,30.04,North,8,0.0,0.0,79,0.00,,,0.00,,2013-09-04 07:12:00,
2013-09-04 03:22:00,66.0,59.0,30.04,North,8,0.0,0.0,79,0.00,,,0.00,,2013-09-04 07:22:00,
2013-09-04 03:52:00,65.0,59.0,30.04,ENE,59,0.0,0.0,82,0.00,,,0.00,,2013-09-04 07:52:00,
2013-09-04 04:12:00,64.0,59.0,30.05,ENE,59,0.0,0.0,83,0.00,,,0.00,,2013-09-04 08:12:00,
2013-09-04 04:22:00,64.0,59.0,30.05,ENE,59,0.0,0.0,83,0.00,,,0.00,,2013-09-04 08:22:00,
2013-09-04 04:52:00,63.0,58.0,30.06,ENE,59,0.0,0.0,83,0.00,,,0.00,,2013-09-04 08:52:00,
2013-09-04 05:22:00,63.0,58.0,30.07,ENE,59,0.0,0.0,84,0.00,,,0.00,,2013-09-04 09:22:00,
2013-09-04 05:53:00,63.0,58.0,30.07,ENE,59,0.0,0.0,84,0.00,,,0.00,,2013-09-04 09:53:00,
2013-09-04 06:03:00,63.0,58.0,30.07,ENE,59,0.0,0.0,84,0.00,,,0.00,,2013-09-04 10:03:00,
2013-09-04 06:23:00,63.0,58.0,30.08,ENE,59,0.0,0.0,85,0.00,,,0.00,,2013-09-04 10:23:00,
2013-09-04 06:52:00,62.0,58.0,30.09,ENE,59,0.0,0.0,86,0.00,,,0.00,,2013-09-04 10:52:00,
2013-09-04 07:22:00,62.0,58.0,30.10,ENE,59,0.0,0.0,86,0.00,,,0.00,,2013-09-04 11:22:00,
2013-09-04 07:52:00,62.0,58.0,30.11,ENE,59,0.0,0.0,86,0.00,,,0.00,,2013-09-04 11:52:00,
2013-09-04 08:02:00,62.0,58.0,30.11,ENE,59,0.0,0.0,86,0.00,,,0.00,,2013-09-04 12:02:00,
2013-09-04 08:21:00,62.0,58.0,30.12,ENE,59,0.0,0.0,87,0.00,,,0.00,,2013-09-04 12:21:00,
2013-09-04 08:52:00,62.0,58.0,30.12,ENE,59,0.0,0.0,87,0.00,,,0.00,,2013-09-04 12:52:00,
2013-09-04 09:52:00,64.0,59.0,30.13,South,169,0.0,3.0,85,0.00,,,0.00,,2013-09-04 13:52:00,
2013-09-04 10:21:00,66.0,60.0,30.13,East,94,1.0,5.0,82,0.00,,,0.00,,2013-09-04 14:21:00,
2013-09-04 10:52:00,67.0,60.0,30.14,East,79,2.0,5.0,79,0.00,,,0.00,,2013-09-04 14:52:00,
2013-09-04 11:12:00,70.0,61.0,30.14,West,278,2.0,7.0,73,0.00,,,0.00,,2013-09-04 15:12:00,
2013-09-04 11:22:00,70.0,61.0,30.14,West,278,2.0,7.0,73,0.00,,,0.00,,2013-09-04 15:22:00,
2013-09-04 11:33:00,70.0,61.0,30.14,West,278,2.0,7.0,73,0.00,,,0.00,,2013-09-04 15:33:00,
2013-09-04 11:53:00,74.0,61.0,30.14,ENE,74,0.0,5.0,63,0.00,,,0.00,,2013-09-04 15:53:00,
2013-09-04 12:04:00,74.0,61.0,30.14,ENE,74,0.0,5.0,63,0.00,,,0.00,,2013-09-04 16:04:00,
2013-09-04 12:12:00,74.0,61.0,30.14,ENE,74,0.0,5.0,63,0.00,,,0.00,,2013-09-04 16:12:00,
2013-09-04 12:23:00,74.0,61.0,30.14,ENE,74,0.0,5.0,63,0.00,,,0.00,,2013-09-04 16:23:00,
2013-09-04 12:53:00,77.0,57.0,30.13,SSW,197,2.0,7.0,51,0.00,,,0.00,,2013-09-04 16:53:00,
2013-09-04 13:23:00,79.0,59.0,30.12,NNW,328,1.0,7.0,50,0.00,,,0.00,,2013-09-04 17:23:00,
2013-09-04 13:34:00,79.0,59.0,30.12,NNW,328,1.0,7.0,50,0.00,,,0.00,,2013-09-04 17:34:00,
2013-09-04 13:53:00,79.0,59.0,30.12,NNW,328,1.0,7.0,50,0.00,,,0.00,,2013-09-04 17:53:00,
2013-09-04 14:13:00,82.0,61.0,30.11,SW,229,1.0,8.0,50,0.00,,,0.00,,2013-09-04 18:13:00,
2013-09-04 14:22:00,82.0,61.0,30.11,SW,229,1.0,8.0,50,0.00,,,0.00,,2013-09-04 18:22:00,
2013-09-04 14:52:00,82.0,61.0,30.11,South,175,3.0,10.0,50,0.00,,,0.00,,2013-09-04 18:52:00,
2013-09-04 15:02:00,82.0,61.0,30.11,South,175,3.0,10.0,50,0.00,,,0.00,,2013-09-04 19:02:00,
2013-09-04 15:11:00,82.0,61.0,30.11,South,175,3.0,10.0,50,0.00,,,0.00,,2013-09-04 19:11:00,
2013-09-04 15:53:00,83.0,62.0,30.09,South,180,6.0,10.0,49,0.00,,,0.00,,2013-09-04 19:53:00,
2013-09-04 16:02:00,83.0,62.0,30.09,South,180,6.0,10.0,49,0.00,,,0.00,,2013-09-04 20:02:00,
2013-09-04 16:12:00,83.0,62.0,30.09,South,180,6.0,10.0,49,0.00,,,0.00,,2013-09-04 20:12:00,
2013-09-04 16:22:00,83.0,62.0,30.09,South,180,6.0,10.0,49,0.00,,,0.00,,2013-09-04 20:22:00,
2013-09-04 16:53:00,81.0,62.0,30.08,South,182,7.0,13.0,52,0.00,,,0.00,,2013-09-04 20:53:00,
2013-09-04 17:00:00,80.0,62.0,30.08,South,170,6.0,12.0,54,0.00,,,0.00,,2013-09-04 21:00:00,
2013-09-04 17:02:00,81.0,62.0,30.08,South,182,7.0,13.0,52,0.00,,,0.00,,2013-09-04 21:02:00,
2013-09-04 17:22:00,80.0,62.0,30.08,South,170,6.0,12.0,54,0.00,,,0.00,,2013-09-04 21:22:00,
2013-09-04 17:34:00,80.0,62.0,30.08,South,170,6.0,12.0,54,0.00,,,0.00,,2013-09-04 21:34:00,
2013-09-04 17:54:00,80.0,62.0,30.08,South,170,6.0,12.0,54,0.00,,,0.00,,2013-09-04 21:54:00,
2013-09-04 18:23:00,78.0,62.0,30.07,South,183,6.0,10.0,59,0.00,,,0.00,,2013-09-04 22:23:00,
2013-09-04 18:55:00,78.0,63.0,30.08,South,187,5.0,10.0,61,0.00,,,0.00,,2013-09-04 22:55:00,
2013-09-04 19:03:00,78.0,63.0,30.08,South,187,5.0,10.0,61,0.00,,,0.00,,2013-09-04 23:03:00,
2013-09-04 19:22:00,76.0,63.0,30.08,South,187,3.0,8.0,64,0.00,,,0.00,,2013-09-04 23:22:00,
2013-09-04 19:52:00,75.0,64.0,30.08,South,189,3.0,7.0,68,0.00,,,0.00,,2013-09-04 23:52:00,
2013-09-04 20:00:00,74.0,64.0,30.09,South,187,2.0,6.0,70,0.00,,,0.00,,2013-09-05 00:00:00,
2013-09-04 20:22:00,74.0,64.0,30.09,South,187,2.0,6.0,70,0.00,,,0.00,,2013-09-05 00:22:00,
2013-09-04 20:32:00,74.0,64.0,30.09,South,187,2.0,6.0,70,0.00,,,0.00,,2013-09-05 00:32:00,
2013-09-04 20:52:00,74.0,64.0,30.09,South,187,2.0,6.0,70,0.00,,,0.00,,2013-09-05 00:52:00,
2013-09-04 22:22:00,70.0,58.0,30.11,SSW,203,1.0,2.0,66,0.00,,,0.00,,2013-09-05 02:22:00,
2013-09-04 22:32:00,70.0,58.0,30.11,SSW,203,1.0,2.0,66,0.00,,,0.00,,2013-09-05 02:32:00,
2013-09-04 22:42:00,70.0,58.0,30.11,SSW,203,1.0,2.0,66,0.00,,,0.00,,2013-09-05 02:42:00,
2013-09-04 23:54:00,68.0,57.0,30.13,South,174,0.0,0.0,68,0.00,,,0.00,,2013-09-05 03:54:00,